createdAt,value
2018-12-06T00:01:37.366Z,14.37
2018-12-06T00:04:13.904Z,20.23
2018-12-06T00:06:51.938Z,15.90
2018-12-06T00:09:22.563Z,16.67
2018-12-06T00:11:51.739Z,18.20
2018-12-06T00:14:20.539Z,11.93
2018-12-06T00:17:03.481Z,14.83
2018-12-06T00:19:41.941Z,17.10
2018-12-06T00:22:13.542Z,15.70
2018-12-06T00:24:51.199Z,17.37
2018-12-06T00:27:20.756Z,16.13
2018-12-06T00:30:05.050Z,18.03
2018-12-06T00:32:42.724Z,15.30
2018-12-06T00:35:23.115Z,15.87
2018-12-06T00:37:57.406Z,20.20
2018-12-06T00:40:32.379Z,16.80
2018-12-06T00:43:11.467Z,16.43
2018-12-06T00:45:51.933Z,17.50
2018-12-06T00:48:26.259Z,18.00
2018-12-06T00:50:57.638Z,19.33
2018-12-06T00:53:27.597Z,17.90
2018-12-06T00:55:59.808Z,16.00
2018-12-06T00:58:29.135Z,19.90
2018-12-06T01:00:57.881Z,17.13
2018-12-06T01:03:27.098Z,15.97
2018-12-06T01:05:59.171Z,16.80
2018-12-06T01:08:27.310Z,19.07
2018-12-06T01:10:55.414Z,21.73
2018-12-06T01:13:23.560Z,20.40
2018-12-06T01:15:55.523Z,21.57
2018-12-06T01:18:24.275Z,19.87
2018-12-06T01:20:53.145Z,18.50
2018-12-06T01:23:21.258Z,21.80
2018-12-06T01:25:53.115Z,19.63
2018-12-06T01:28:21.332Z,19.50
2018-12-06T01:30:49.611Z,19.80
2018-12-06T01:33:17.698Z,17.30
2018-12-06T01:35:49.345Z,21.53
2018-12-06T01:38:17.581Z,22.07
2018-12-06T01:40:45.715Z,24.10
2018-12-06T01:43:13.999Z,20.00
2018-12-06T01:45:46.061Z,18.90
2018-12-06T01:48:14.463Z,21.53
2018-12-06T01:50:42.690Z,20.73
2018-12-06T01:53:22.711Z,21.80
2018-12-06T01:55:56.931Z,18.70
2018-12-06T01:58:38.249Z,18.50
2018-12-06T02:01:12.683Z,18.23
2018-12-06T02:03:43.929Z,22.13
2018-12-06T02:06:15.992Z,21.80
2018-12-06T02:08:56.114Z,19.70
2018-12-06T02:11:26.162Z,20.77
2018-12-06T02:13:54.329Z,21.13
2018-12-06T02:16:26.434Z,23.57
2018-12-06T02:18:54.588Z,24.07
2018-12-06T02:21:22.879Z,23.00
2018-12-06T02:23:51.050Z,21.13
2018-12-06T02:26:22.611Z,22.40
2018-12-06T02:28:50.781Z,20.50
2018-12-06T02:31:18.963Z,21.33
2018-12-06T02:33:47.126Z,22.47
2018-12-06T02:36:16.987Z,20.27
2018-12-06T02:38:48.090Z,21.60
2018-12-06T02:41:17.444Z,21.43
2018-12-06T02:43:45.686Z,21.07
2018-12-06T02:46:16.971Z,23.63
2018-12-06T02:49:03.254Z,20.20
2018-12-06T02:51:32.871Z,20.93
2018-12-06T02:54:01.085Z,21.53
2018-12-06T02:56:33.038Z,21.53
2018-12-06T02:59:01.176Z,23.30
2018-12-06T03:01:29.370Z,21.30
2018-12-06T03:03:57.507Z,21.03
2018-12-06T03:06:29.378Z,20.97
2018-12-06T03:08:57.615Z,25.97
2018-12-06T03:11:25.748Z,22.27
2018-12-06T03:13:53.971Z,18.43
2018-12-06T03:16:26.091Z,24.50
2018-12-06T03:18:54.236Z,20.93
2018-12-06T03:21:22.400Z,27.03
2018-12-06T03:23:50.571Z,21.50
2018-12-06T03:26:22.791Z,26.53
2018-12-06T03:28:50.986Z,24.97
2018-12-06T03:31:19.232Z,23.67
2018-12-06T03:33:47.526Z,23.10
2018-12-06T03:36:18.758Z,24.07
2018-12-06T03:38:46.894Z,22.53
2018-12-06T03:41:15.049Z,25.10
2018-12-06T03:43:43.199Z,22.60
2018-12-06T03:46:15.288Z,21.90
2018-12-06T03:48:43.406Z,24.20
2018-12-06T03:51:11.592Z,21.80
2018-12-06T03:53:39.744Z,24.77
2018-12-06T03:56:11.696Z,20.63
2018-12-06T03:58:39.986Z,21.37
2018-12-06T04:01:10.796Z,21.57
2018-12-06T04:03:38.959Z,23.97
2018-12-06T04:06:10.163Z,25.93
2018-12-06T04:08:38.299Z,23.17
2018-12-06T04:11:06.530Z,25.07
2018-12-06T04:13:34.777Z,23.23
2018-12-06T04:16:06.563Z,23.00
2018-12-06T04:18:34.737Z,32.40
2018-12-06T04:21:02.900Z,24.20
2018-12-06T04:26:16.647Z,24.27
2018-12-06T04:28:50.436Z,23.40
2018-12-06T04:31:21.976Z,22.47
2018-12-06T04:33:50.152Z,22.97
2018-12-06T04:36:22.113Z,23.03
2018-12-06T04:38:50.244Z,24.17
2018-12-06T04:41:18.380Z,24.50
2018-12-06T04:43:46.490Z,23.40
2018-12-06T04:46:18.533Z,24.03
2018-12-06T04:48:46.688Z,25.33
2018-12-06T04:51:14.845Z,23.77
2018-12-06T04:53:43.081Z,27.30
2018-12-06T04:56:15.079Z,25.90
2018-12-06T04:58:49.121Z,24.20
2018-12-06T05:01:21.035Z,29.20
2018-12-06T05:03:49.201Z,26.80
2018-12-06T05:06:21.321Z,27.67
2018-12-06T05:08:49.475Z,30.73
2018-12-06T05:11:17.631Z,25.63
2018-12-06T05:13:45.805Z,26.73
2018-12-06T05:16:17.883Z,27.27
2018-12-06T05:19:02.506Z,27.53
2018-12-06T05:21:32.475Z,29.80
2018-12-06T05:24:13.475Z,22.57
2018-12-06T05:26:49.227Z,25.90
2018-12-06T05:29:24.963Z,27.30
2018-12-06T05:31:58.635Z,36.47
2018-12-06T05:34:29.926Z,27.27
2018-12-06T05:37:01.776Z,27.40
2018-12-06T05:39:35.439Z,26.97
2018-12-06T05:42:07.413Z,29.90
2018-12-06T05:44:39.377Z,26.73
2018-12-06T05:47:07.663Z,26.20
2018-12-06T05:49:35.860Z,32.23
2018-12-06T05:52:04.063Z,28.73
2018-12-06T05:54:32.504Z,28.40
2018-12-06T05:57:00.767Z,31.43
2018-12-06T05:59:29.049Z,31.97
2018-12-06T06:01:57.361Z,29.30
2018-12-06T06:04:25.641Z,34.83
2018-12-06T06:06:58.908Z,30.60
2018-12-06T06:09:27.145Z,34.87
2018-12-06T06:11:55.371Z,30.33
2018-12-06T06:14:23.520Z,33.70
2018-12-06T06:16:55.305Z,26.87
2018-12-06T06:19:23.475Z,29.93
2018-12-06T06:21:51.681Z,28.40
2018-12-06T06:24:19.893Z,34.93
2018-12-06T06:26:51.828Z,36.23
2018-12-06T06:29:21.015Z,31.50
2018-12-06T06:31:49.161Z,29.77
2018-12-06T06:34:17.335Z,33.63
2018-12-06T06:36:49.309Z,35.63
2018-12-06T06:39:17.501Z,34.10
2018-12-06T06:41:45.675Z,32.00
2018-12-06T06:44:13.848Z,32.07
2018-12-06T06:46:44.991Z,34.53
2018-12-06T06:49:16.979Z,32.07
2018-12-06T06:51:53.305Z,34.30
2018-12-06T06:54:29.295Z,36.50
2018-12-06T06:57:02.912Z,33.30
2018-12-06T06:59:34.352Z,32.47
2018-12-06T07:02:02.544Z,35.57
2018-12-06T07:04:30.797Z,30.50
2018-12-06T07:06:59.052Z,39.20
2018-12-06T07:09:28.284Z,32.37
2018-12-06T07:11:56.422Z,39.73
2018-12-06T07:14:24.599Z,36.60
2018-12-06T07:16:56.824Z,34.70
2018-12-06T07:19:25.011Z,37.97
2018-12-06T07:21:53.214Z,35.40
2018-12-06T07:24:21.374Z,37.87
2018-12-06T07:26:53.084Z,37.07
2018-12-06T07:29:21.334Z,39.30
2018-12-06T07:31:49.497Z,35.70
2018-12-06T07:34:17.688Z,36.37
2018-12-06T07:36:49.675Z,35.47
2018-12-06T07:39:17.890Z,33.20
2018-12-06T07:41:46.105Z,39.97
2018-12-06T07:44:14.273Z,43.13
2018-12-06T07:46:46.301Z,36.80
2018-12-06T07:49:14.480Z,37.90
2018-12-06T07:51:42.647Z,37.93
2018-12-06T07:54:10.822Z,31.50
2018-12-06T07:56:42.570Z,38.77
2018-12-06T07:59:10.835Z,33.43
2018-12-06T08:01:38.975Z,37.07
2018-12-06T08:04:07.113Z,35.10
2018-12-06T08:06:39.089Z,36.27
2018-12-06T08:09:08.793Z,36.73
2018-12-06T08:11:38.697Z,37.27
2018-12-06T08:14:07.056Z,36.30
2018-12-06T08:16:39.058Z,34.57
2018-12-06T08:19:07.407Z,38.73
2018-12-06T08:21:35.552Z,37.07
2018-12-06T08:24:03.786Z,35.00
2018-12-06T08:26:35.572Z,44.43
2018-12-06T08:29:03.725Z,39.27
2018-12-06T08:31:31.893Z,43.53
2018-12-06T08:34:06.095Z,33.43
2018-12-06T08:36:34.197Z,39.13
2018-12-06T08:39:02.344Z,39.17
2018-12-06T08:41:30.509Z,37.07
2018-12-06T08:43:58.697Z,41.23
2018-12-06T08:46:30.399Z,38.50
2018-12-06T08:49:03.136Z,39.07
2018-12-06T08:51:43.367Z,37.93
2018-12-06T08:54:26.171Z,37.57
2018-12-06T08:57:00.499Z,38.10
2018-12-06T08:59:40.990Z,38.13
2018-12-06T09:02:21.838Z,44.33
2018-12-06T09:04:57.190Z,41.97
2018-12-06T09:07:28.699Z,43.90
2018-12-06T09:10:00.875Z,41.07
2018-12-06T09:12:29.054Z,42.13
2018-12-06T09:15:01.101Z,41.93
2018-12-06T09:17:29.306Z,44.70
2018-12-06T09:19:57.627Z,45.90
2018-12-06T09:22:25.872Z,44.77
2018-12-06T09:24:57.560Z,40.87
2018-12-06T09:27:25.768Z,49.00
2018-12-06T09:29:53.970Z,43.03
2018-12-06T09:32:22.103Z,42.20
2018-12-06T09:34:54.134Z,40.93
2018-12-06T09:37:22.363Z,46.17
2018-12-06T09:39:56.905Z,48.20
2018-12-06T09:42:25.066Z,55.10
2018-12-06T09:44:56.682Z,45.63
2018-12-06T09:47:24.880Z,45.37
2018-12-06T09:49:53.097Z,50.60
2018-12-06T09:52:21.228Z,47.70
2018-12-06T09:54:58.122Z,42.43
2018-12-06T09:57:28.016Z,46.93
2018-12-06T09:59:57.646Z,46.13
2018-12-06T10:02:31.460Z,47.40
2018-12-06T10:05:01.069Z,40.03
2018-12-06T10:07:29.262Z,44.13
2018-12-06T10:09:57.415Z,47.40
2018-12-06T10:12:25.537Z,43.80
2018-12-06T10:14:57.676Z,47.73
2018-12-06T10:17:25.902Z,49.07
2018-12-06T10:19:54.031Z,46.87
2018-12-06T10:22:22.203Z,46.43
2018-12-06T10:24:53.978Z,41.80
2018-12-06T10:27:22.142Z,46.30
2018-12-06T10:29:50.292Z,43.20
2018-12-06T10:32:18.438Z,45.87
2018-12-06T10:34:53.474Z,44.50
2018-12-06T10:37:19.895Z,45.83
2018-12-06T10:39:48.084Z,56.73
2018-12-06T10:42:16.200Z,43.60
2018-12-06T10:44:52.734Z,44.37
2018-12-06T10:47:26.543Z,43.60
2018-12-06T10:50:00.395Z,49.13
2018-12-06T10:52:31.792Z,46.67
2018-12-06T10:55:03.559Z,38.33
2018-12-06T10:57:31.678Z,42.60
2018-12-06T10:59:59.837Z,42.13
2018-12-06T11:02:32.204Z,45.43
2018-12-06T11:05:04.267Z,48.50
2018-12-06T11:07:32.404Z,47.33
2018-12-06T11:10:00.549Z,45.27
2018-12-06T11:12:28.659Z,45.77
2018-12-06T11:15:00.848Z,46.00
2018-12-06T11:17:28.944Z,53.70
2018-12-06T11:19:57.092Z,51.17
2018-12-06T11:22:25.187Z,46.87
2018-12-06T11:24:57.346Z,71.93
2018-12-06T11:27:25.553Z,48.87
2018-12-06T11:29:53.723Z,51.67
2018-12-06T11:32:27.699Z,47.17
2018-12-06T11:34:59.047Z,50.63
2018-12-06T11:37:31.112Z,50.57
2018-12-06T11:40:16.046Z,50.90
2018-12-06T11:42:50.463Z,47.17
2018-12-06T11:45:26.286Z,45.27
2018-12-06T11:48:00.065Z,51.33
2018-12-06T11:50:29.474Z,48.87
2018-12-06T11:53:03.819Z,41.83
2018-12-06T11:55:37.658Z,43.30
2018-12-06T11:58:13.522Z,46.33
2018-12-06T12:00:48.651Z,44.70
2018-12-06T12:03:22.612Z,45.23
2018-12-06T12:05:58.523Z,45.37
2018-12-06T12:08:24.152Z,46.83
2018-12-06T12:10:52.312Z,44.50
2018-12-06T12:13:20.492Z,38.20
2018-12-06T12:15:52.581Z,36.90
2018-12-06T12:18:20.750Z,42.87
2018-12-06T12:20:48.883Z,36.20
2018-12-06T12:23:17.059Z,38.60
2018-12-06T12:25:49.128Z,36.77
2018-12-06T12:28:17.255Z,36.10
2018-12-06T12:30:45.385Z,37.30
2018-12-06T12:33:13.524Z,37.17
2018-12-06T12:35:45.511Z,36.80
2018-12-06T12:38:13.744Z,32.77
2018-12-06T12:40:41.883Z,33.73
2018-12-06T12:43:10.072Z,30.80
2018-12-06T12:45:39.974Z,35.80
2018-12-06T12:48:20.781Z,38.47
2018-12-06T12:50:52.672Z,37.97
2018-12-06T12:53:26.427Z,37.30
2018-12-06T12:56:04.404Z,31.70
2018-12-06T12:58:42.671Z,35.23
2018-12-06T13:01:20.873Z,35.53
2018-12-06T13:03:52.246Z,34.20
2018-12-06T13:06:23.992Z,34.40
2018-12-06T13:08:52.136Z,34.27
2018-12-06T13:11:20.299Z,30.87
2018-12-06T13:13:48.447Z,36.43
2018-12-06T13:16:32.541Z,35.70
2018-12-06T13:19:02.575Z,31.90
2018-12-06T13:21:32.463Z,33.20
2018-12-06T13:24:06.818Z,27.13
2018-12-06T13:26:36.385Z,25.30
2018-12-06T13:29:07.883Z,30.20
2018-12-06T13:31:36.135Z,30.60
2018-12-06T13:34:04.386Z,29.73
2018-12-06T13:36:32.619Z,25.33
2018-12-06T13:39:01.109Z,27.70
2018-12-06T13:41:29.480Z,25.70
2018-12-06T13:43:57.723Z,23.80
2018-12-06T13:46:32.131Z,24.30
2018-12-06T13:49:16.496Z,25.57
2018-12-06T13:51:48.629Z,21.97
2018-12-06T13:54:27.216Z,21.07
2018-12-06T13:56:59.316Z,24.67
2018-12-06T13:59:27.537Z,24.13
2018-12-06T14:01:59.501Z,25.27
2018-12-06T14:04:28.354Z,23.80
2018-12-06T14:06:56.566Z,23.63
2018-12-06T14:09:24.771Z,25.10
2018-12-06T14:11:52.979Z,26.20
2018-12-06T14:14:21.142Z,24.43
2018-12-06T14:16:49.296Z,25.87
2018-12-06T14:19:17.571Z,26.80
2018-12-06T14:21:45.800Z,29.03
2018-12-06T14:24:14.074Z,24.90
2018-12-06T14:26:42.330Z,24.40
2018-12-06T14:29:10.571Z,26.07
2018-12-06T14:31:38.777Z,25.97
2018-12-06T14:34:07.130Z,24.70
2018-12-06T14:36:43.267Z,27.97
2018-12-06T14:39:15.119Z,25.00
2018-12-06T14:41:43.241Z,30.30
2018-12-06T14:44:11.389Z,25.20
2018-12-06T14:46:42.965Z,26.43
2018-12-06T14:49:11.093Z,25.30
2018-12-06T14:51:39.208Z,26.07
2018-12-06T14:54:07.335Z,24.37
2018-12-06T14:56:39.441Z,28.30
2018-12-06T14:59:07.658Z,26.00
2018-12-06T15:01:35.782Z,27.60
2018-12-06T15:04:03.991Z,29.60
2018-12-06T15:06:37.757Z,25.77
2018-12-06T15:09:07.721Z,27.80
2018-12-06T15:11:35.903Z,26.10
2018-12-06T15:14:04.077Z,26.47
2018-12-06T15:16:36.120Z,25.77
2018-12-06T15:19:04.311Z,25.77
2018-12-06T15:21:32.443Z,24.57
2018-12-06T15:24:10.115Z,26.47
2018-12-06T15:26:41.395Z,21.20
2018-12-06T15:29:09.539Z,19.70
2018-12-06T15:31:37.734Z,21.67
2018-12-06T15:34:05.875Z,25.23
2018-12-06T15:36:37.179Z,21.60
2018-12-06T15:39:07.283Z,21.53
2018-12-06T15:41:35.419Z,21.50
2018-12-06T15:44:03.554Z,21.47
2018-12-06T15:46:35.559Z,26.73
2018-12-06T15:49:03.701Z,22.63
2018-12-06T15:51:31.820Z,20.90
2018-12-06T15:53:59.992Z,20.50
2018-12-06T15:56:31.388Z,28.90
2018-12-06T15:58:59.599Z,22.60
2018-12-06T16:01:27.714Z,24.60
2018-12-06T16:03:55.867Z,26.40
2018-12-06T16:06:27.932Z,20.97
2018-12-06T16:08:56.081Z,21.97
2018-12-06T16:11:24.191Z,24.53
2018-12-06T16:13:52.363Z,23.67
2018-12-06T16:16:24.351Z,24.10
2018-12-06T16:18:52.875Z,25.80
2018-12-06T16:21:21.099Z,28.20
2018-12-06T16:23:49.246Z,25.07
2018-12-06T16:26:21.003Z,26.50
2018-12-06T16:28:49.160Z,29.13
2018-12-06T16:31:17.304Z,24.60
2018-12-06T16:33:45.467Z,29.93
2018-12-06T16:36:17.559Z,28.87
2018-12-06T16:38:45.717Z,24.80
2018-12-06T16:41:13.874Z,27.40
2018-12-06T16:43:42.019Z,30.73
2018-12-06T16:46:20.631Z,30.70
2018-12-06T16:48:52.263Z,29.10
2018-12-06T16:51:24.318Z,31.73
2018-12-06T16:53:52.836Z,32.93
2018-12-06T16:56:24.607Z,29.70
2018-12-06T16:58:52.895Z,32.73
2018-12-06T17:01:21.038Z,30.50
2018-12-06T17:03:49.325Z,32.10
2018-12-06T17:06:23.829Z,32.23
2018-12-06T17:08:52.028Z,36.37
2018-12-06T17:11:20.214Z,35.47
2018-12-06T17:13:48.424Z,32.03
2018-12-06T17:16:19.727Z,36.23
2018-12-06T17:18:47.832Z,36.30
2018-12-06T17:21:15.964Z,37.97
2018-12-06T17:23:44.107Z,38.43
2018-12-06T17:26:15.615Z,34.33
2018-12-06T17:29:00.138Z,33.97
2018-12-06T17:31:29.556Z,36.57
2018-12-06T17:34:01.370Z,35.00
2018-12-06T17:36:32.822Z,34.37
2018-12-06T17:39:01.090Z,37.80
2018-12-06T17:41:29.421Z,34.40
2018-12-06T17:43:57.781Z,38.47
2018-12-06T17:46:29.213Z,32.30
2018-12-06T17:48:57.446Z,34.93
2018-12-06T17:51:25.589Z,28.47
2018-12-06T17:53:54.261Z,31.20
2018-12-06T17:56:25.727Z,34.10
2018-12-06T17:58:55.112Z,31.43
2018-12-06T18:01:23.329Z,33.23
2018-12-06T18:03:51.820Z,39.63
2018-12-06T18:06:23.759Z,37.27
2018-12-06T18:08:51.908Z,33.13
2018-12-06T18:11:20.155Z,34.40
2018-12-06T18:13:48.324Z,34.83
2018-12-06T18:16:20.368Z,33.43
2018-12-06T18:18:48.576Z,29.33
2018-12-06T18:21:16.748Z,32.03
2018-12-06T18:23:44.892Z,29.90
2018-12-06T18:26:16.908Z,33.27
2018-12-06T18:28:45.134Z,34.03
2018-12-06T18:31:13.333Z,31.80
2018-12-06T18:33:41.587Z,36.97
2018-12-06T18:36:13.459Z,39.93
2018-12-06T18:38:41.614Z,33.97
2018-12-06T18:41:09.768Z,32.77
2018-12-06T18:43:37.895Z,32.33
2018-12-06T18:46:09.877Z,31.63
2018-12-06T18:48:38.034Z,36.73
2018-12-06T18:51:06.231Z,34.10
2018-12-06T18:53:34.864Z,33.40
2018-12-06T18:56:06.088Z,32.40
2018-12-06T18:58:34.736Z,32.40
2018-12-06T19:01:02.961Z,33.90
2018-12-06T19:03:31.147Z,29.80
2018-12-06T19:06:02.575Z,29.87
2018-12-06T19:08:30.705Z,34.60
2018-12-06T19:10:58.883Z,30.00
2018-12-06T19:13:27.107Z,34.50
2018-12-06T19:15:59.128Z,31.60
2018-12-06T19:18:27.310Z,33.20
2018-12-06T19:20:55.589Z,31.23
2018-12-06T19:23:23.751Z,28.90
2018-12-06T19:26:18.631Z,28.83
2018-12-06T19:28:57.023Z,30.60
2018-12-06T19:31:37.458Z,30.20
2018-12-06T19:34:07.340Z,31.10
2018-12-06T19:36:41.635Z,28.37
2018-12-06T19:39:12.956Z,31.43
2018-12-06T19:41:43.012Z,29.43
2018-12-06T19:44:11.193Z,27.57
2018-12-06T19:46:42.434Z,29.87
2018-12-06T19:49:10.554Z,30.80
2018-12-06T19:51:45.012Z,30.47
2018-12-06T19:54:16.478Z,35.00
2018-12-06T19:56:46.048Z,34.73
2018-12-06T19:59:14.657Z,34.80
2018-12-06T20:01:42.846Z,37.30
2018-12-06T20:04:10.991Z,36.77
2018-12-06T20:06:44.958Z,36.27
2018-12-06T20:09:22.794Z,41.10
2018-12-06T20:11:54.267Z,33.07
2018-12-06T20:14:39.230Z,33.90
2018-12-06T20:17:09.083Z,35.90
2018-12-06T20:19:45.609Z,35.90
2018-12-06T20:22:18.291Z,38.73
2018-12-06T20:24:47.216Z,36.97
2018-12-06T20:27:18.522Z,34.50
2018-12-06T20:29:49.372Z,37.27
2018-12-06T20:32:20.045Z,36.13
2018-12-06T20:34:50.555Z,37.33
2018-12-06T20:37:18.883Z,36.27
2018-12-06T20:39:48.539Z,42.03
2018-12-06T20:42:24.307Z,38.40
2018-12-06T20:44:58.727Z,39.63
2018-12-06T20:47:32.341Z,40.83
2018-12-06T20:50:06.975Z,39.37
2018-12-06T20:52:41.911Z,44.43
2018-12-06T20:55:17.652Z,37.13
2018-12-06T20:57:53.779Z,42.97
2018-12-06T21:00:29.847Z,39.23
2018-12-06T21:03:10.842Z,40.10
2018-12-06T21:05:51.104Z,43.30
2018-12-06T21:08:25.760Z,39.77
2018-12-06T21:10:53.962Z,40.87
2018-12-06T21:13:22.727Z,48.97
2018-12-06T21:16:03.107Z,42.17
2018-12-06T21:18:37.363Z,41.90
2018-12-06T21:21:07.835Z,44.27
2018-12-06T21:23:37.721Z,42.37
2018-12-06T21:26:12.221Z,46.47
2018-12-06T21:28:46.143Z,47.13
2018-12-06T21:31:19.941Z,42.37
2018-12-06T21:33:51.315Z,44.77
2018-12-06T21:36:29.722Z,43.50
2018-12-06T21:39:08.024Z,43.17
2018-12-06T21:41:42.640Z,45.00
2018-12-06T21:44:16.545Z,43.20
2018-12-06T21:46:50.651Z,45.23
2018-12-06T21:49:21.824Z,40.60
2018-12-06T21:51:51.944Z,44.97
2018-12-06T21:54:20.192Z,43.37
2018-12-06T21:56:52.015Z,44.23
2018-12-06T21:59:20.239Z,36.27
2018-12-06T22:01:48.444Z,40.03
2018-12-06T22:04:16.643Z,45.37
2018-12-06T22:06:52.116Z,38.20
2018-12-06T22:09:28.499Z,37.10
2018-12-06T22:12:02.267Z,39.87
2018-12-06T22:14:33.782Z,39.20
2018-12-06T22:17:01.934Z,36.80
2018-12-06T22:19:30.133Z,36.80
2018-12-06T22:21:58.259Z,35.17
2018-12-06T22:24:26.367Z,34.10
2018-12-06T22:26:56.910Z,33.73
2018-12-06T22:29:25.067Z,35.23
2018-12-06T22:31:53.241Z,32.67
2018-12-06T22:34:21.391Z,31.80
2018-12-06T22:36:53.347Z,28.20
2018-12-06T22:39:21.552Z,32.03
2018-12-06T22:41:50.025Z,31.83
2018-12-06T22:44:18.358Z,30.03
2018-12-06T22:46:59.076Z,29.10
2018-12-06T22:49:35.608Z,24.97
2018-12-06T22:52:09.418Z,22.50
2018-12-06T22:54:47.139Z,26.17
2018-12-06T22:57:29.463Z,25.70
2018-12-06T22:59:58.627Z,20.93
2018-12-06T23:02:26.746Z,18.30
2018-12-06T23:04:58.123Z,22.30
2018-12-06T23:07:26.276Z,17.20
2018-12-06T23:09:54.399Z,17.73
2018-12-06T23:12:22.552Z,16.40
2018-12-06T23:15:00.194Z,16.23
2018-12-06T23:17:31.672Z,13.93
2018-12-06T23:19:59.788Z,15.07
2018-12-06T23:22:27.961Z,11.23
2018-12-06T23:24:57.592Z,14.77
2018-12-06T23:27:25.714Z,10.93
2018-12-06T23:29:53.851Z,10.77
2018-12-06T23:32:21.979Z,9.47
2018-12-06T23:34:53.120Z,8.73
2018-12-06T23:37:21.271Z,10.57
2018-12-06T23:39:49.419Z,9.50
2018-12-06T23:42:17.555Z,11.40
2018-12-06T23:44:48.831Z,13.57
2018-12-06T23:47:16.995Z,10.63
2018-12-06T23:49:45.135Z,9.63
2018-12-06T23:52:13.256Z,8.03
2018-12-06T23:54:44.447Z,8.10
2018-12-06T23:57:12.632Z,7.60
2018-12-06T23:59:40.790Z,6.17
